Time;durP1;ratioP1;P1;durP2;ratioP2;P2;SDS_P1;SDS_P2;PMS_P1;PMS_P2;Temp;Humidity;BMP_temperature;BMP_pressure;BME280_temperature;BME280_humidity;BME280_pressure;Samples;Min_cycle;Max_cycle;Signal;HPM_P1;HPM_P2
2023/03/10 00:04:14;;;;;;;4.80;1.38;;;;;;;10.70;59.67;97441.59;10432295;28;20045;-60
2023/03/10 00:09:16;;;;;;;4.82;1.48;;;;;;;10.80;59.51;97445.75;10424745;28;20437;-61
2023/03/10 00:14:18;;;;;;;2.67;1.20;;;;;;;10.75;59.31;97440.16;10428218;28;20081;-60
2023/03/10 00:19:19;;;;;;;3.10;1.30;;;;;;;10.83;59.55;97431.53;10427992;28;20075;-60
2023/03/10 00:24:21;;;;;;;3.33;1.27;;;;;;;10.83;59.49;97427.13;10409105;28;20049;-60
2023/03/10 00:29:23;;;;;;;3.92;1.20;;;;;;;10.81;59.67;97418.63;10428293;28;20044;-60
2023/03/10 00:34:25;;;;;;;1.67;1.00;;;;;;;10.78;59.97;97387.56;10427468;28;20055;-61
2023/03/10 00:39:27;;;;;;;2.30;1.20;;;;;;;10.66;60.47;97398.44;10407354;28;20052;-61
2023/03/10 00:44:28;;;;;;;5.15;1.30;;;;;;;10.53;61.58;97401.44;10425147;28;20107;-60
2023/03/10 00:49:30;;;;;;;5.13;1.60;;;;;;;10.30;62.71;97406.31;10428223;28;20224;-61
2023/03/10 00:54:31;;;;;;;2.88;1.33;;;;;;;10.17;63.36;97405.91;10425450;28;20049;-60
2023/03/10 00:59:33;;;;;;;3.40;1.23;;;;;;;10.19;63.53;97403.13;10434023;28;20040;-61
2023/03/10 01:04:50;;;;;;;3.30;1.25;;;;;;;10.20;63.58;97387.31;10435419;28;20487;-60
2023/03/10 01:09:51;;;;;;;2.97;1.05;;;;;;;10.02;64.48;97385.66;10433307;28;20047;-61
2023/03/10 01:14:53;;;;;;;2.58;1.15;;;;;;;10.03;64.36;97388.16;10435133;28;20056;-61
2023/03/10 01:19:54;;;;;;;1.92;1.10;;;;;;;10.01;64.49;97376.22;10432393;28;20056;-61
2023/03/10 01:24:56;;;;;;;2.65;1.10;;;;;;;10.12;64.34;97368.13;10432811;28;20045;-60
2023/03/10 01:29:58;;;;;;;3.88;1.20;;;;;;;10.02;64.95;97363.00;10432955;28;20205;-61
2023/03/10 01:34:59;;;;;;;3.05;1.33;;;;;;;9.86;65.47;97356.81;10432347;28;20320;-60
2023/03/10 01:40:03;;;;;;;3.22;1.40;;;;;;;9.85;65.70;97349.97;10415139;28;20051;-60
2023/03/10 01:45:28;;;;;;;2.72;1.20;;;;;;;9.79;65.83;97347.94;10431754;28;20076;-60
2023/03/10 01:50:30;;;;;;;3.45;1.20;;;;;;;9.80;66.14;97336.53;10403073;28;20060;-60
2023/03/10 01:55:34;;;;;;;5.25;1.30;;;;;;;9.74;66.25;97324.91;10431249;28;20718;-60
2023/03/10 02:00:36;;;;;;;3.50;1.40;;;;;;;9.68;66.50;97322.06;10430931;28;20052;-60
2023/03/10 02:05:44;;;;;;;3.05;1.38;;;;;;;9.71;66.38;97327.00;10415116;28;20045;-61
2023/03/10 02:10:47;;;;;;;4.70;1.40;;;;;;;9.64;66.54;97319.72;10429157;28;20052;-60
2023/03/10 02:15:49;;;;;;;4.35;1.30;;;;;;;9.69;66.21;97316.69;10432014;28;20049;-60
2023/03/10 02:21:27;;;;;;;4.07;1.45;;;;;;;9.68;66.26;97327.28;10431839;28;20406;-60
2023/03/10 02:26:54;;;;;;;1.80;1.10;;;;;;;9.71;66.11;97319.16;10431987;28;20331;-60
2023/03/10 02:31:57;;;;;;;1.83;1.00;;;;;;;9.80;65.81;97318.25;10431663;28;20056;-60
2023/03/10 02:36:59;;;;;;;3.60;1.40;;;;;;;9.85;65.59;97319.44;10429650;28;20110;-60
2023/03/10 02:42:01;;;;;;;2.58;1.30;;;;;;;9.82;65.55;97313.72;10427105;28;20499;-60
2023/03/10 02:47:03;;;;;;;3.92;1.30;;;;;;;9.71;65.23;97312.13;10429850;28;20125;-60
2023/03/10 02:52:10;;;;;;;3.38;1.20;;;;;;;9.62;65.27;97302.56;10429273;28;20056;-60
2023/03/10 02:57:12;;;;;;;3.63;1.30;;;;;;;9.62;65.15;97305.19;10432326;28;20041;-60
2023/03/10 03:02:14;;;;;;;4.40;1.30;;;;;;;9.74;64.81;97300.59;10432472;28;20049;-61
2023/03/10 03:07:15;;;;;;;3.35;1.40;;;;;;;9.81;64.84;97292.00;10435587;28;20055;-60
2023/03/10 03:12:17;;;;;;;5.38;1.42;;;;;;;9.87;64.57;97296.63;10439881;28;20048;-60
2023/03/10 03:17:18;;;;;;;6.65;1.65;;;;;;;9.75;64.83;97289.19;10438058;28;20480;-59
2023/03/10 03:22:20;;;;;;;5.97;1.95;;;;;;;9.83;64.68;97279.63;10436888;28;20343;-60
2023/03/10 03:27:22;;;;;;;6.75;1.77;;;;;;;9.78;64.40;97283.66;10434941;28;20048;-59
2023/03/10 03:32:24;;;;;;;3.63;1.40;;;;;;;9.64;63.96;97296.25;10436494;28;20516;-60
2023/03/10 03:37:26;;;;;;;5.72;1.83;;;;;;;9.49;64.01;97281.25;10434316;28;20044;-60
2023/03/10 03:42:27;;;;;;;8.57;1.83;;;;;;;9.51;63.57;97293.19;10435578;28;20759;-59
2023/03/10 03:47:29;;;;;;;8.88;1.83;;;;;;;9.70;63.56;97304.47;10436150;28;20052;-60
2023/03/10 03:52:31;;;;;;;7.55;1.70;;;;;;;9.70;63.20;97313.13;10420512;28;20057;-60
2023/03/10 03:57:33;;;;;;;6.88;1.65;;;;;;;9.84;62.92;97309.16;10435169;28;20163;-59
2023/03/10 04:02:35;;;;;;;7.35;1.50;;;;;;;9.91;62.72;97299.75;10436189;28;20045;-60
2023/03/10 04:07:38;;;;;;;7.03;1.60;;;;;;;9.91;62.71;97284.91;10431330;28;20041;-60
2023/03/10 04:12:40;;;;;;;8.27;1.50;;;;;;;9.90;62.73;97283.28;10427581;28;20059;-60
2023/03/10 04:17:42;;;;;;;4.05;1.40;;;;;;;9.94;62.80;97289.00;10428691;28;20060;-60
2023/03/10 04:22:44;;;;;;;7.80;1.90;;;;;;;9.92;62.82;97289.16;10429495;28;20049;-60
2023/03/10 04:27:45;;;;;;;6.95;1.67;;;;;;;9.92;62.84;97277.91;10428953;28;20045;-60
2023/03/10 04:32:47;;;;;;;7.72;1.60;;;;;;;10.03;62.65;97267.22;10432142;28;20047;-60
2023/03/10 04:37:49;;;;;;;7.38;1.67;;;;;;;10.15;62.64;97263.38;10437758;28;20092;-60
2023/03/10 04:42:51;;;;;;;8.93;1.88;;;;;;;10.12;62.68;97268.91;10452931;28;20044;-60
2023/03/10 04:47:53;;;;;;;7.70;1.67;;;;;;;10.03;62.24;97260.22;10435221;28;20040;-60
2023/03/10 04:52:55;;;;;;;7.57;1.80;;;;;;;10.01;61.98;97249.06;10437909;28;20049;-60
2023/03/10 04:57:56;;;;;;;11.40;1.80;;;;;;;10.06;61.80;97230.34;10435321;28;20041;-60
2023/03/10 05:02:58;;;;;;;9.90;2.10;;;;;;;10.14;61.49;97226.00;10434091;28;20044;-60
2023/03/10 05:08:00;;;;;;;8.25;2.35;;;;;;;10.07;61.42;97234.59;10435345;28;20564;-60
2023/03/10 05:13:01;;;;;;;8.65;2.00;;;;;;;10.00;61.15;97233.56;10433946;28;20052;-60
2023/03/10 05:18:03;;;;;;;8.95;1.90;;;;;;;10.04;60.94;97219.22;10436102;28;20049;-60
2023/03/10 05:23:05;;;;;;;8.80;1.88;;;;;;;10.11;60.56;97215.03;10439469;28;20060;-60
2023/03/10 05:28:06;;;;;;;6.78;1.90;;;;;;;10.10;60.62;97210.78;10439129;28;20059;-60
2023/03/10 05:33:08;;;;;;;9.85;2.30;;;;;;;10.05;60.34;97210.44;10433819;28;20194;-60
2023/03/10 05:38:10;;;;;;;10.15;2.58;;;;;;;10.10;60.20;97202.94;10433624;28;20489;-60
2023/03/10 05:43:11;;;;;;;12.63;2.28;;;;;;;10.08;60.29;97199.66;10433995;28;20052;-60
2023/03/10 05:48:13;;;;;;;11.00;4.20;;;;;;;10.00;60.55;97212.69;10433045;28;20087;-60
2023/03/10 05:53:15;;;;;;;9.23;2.38;;;;;;;10.03;60.56;97205.38;10434474;28;20052;-60
2023/03/10 05:58:16;;;;;;;13.18;2.67;;;;;;;10.04;60.61;97208.78;10434260;28;20040;-60
2023/03/10 06:03:18;;;;;;;9.68;2.28;;;;;;;10.09;60.53;97217.00;10433810;28;20048;-60
2023/03/10 06:08:20;;;;;;;8.80;1.98;;;;;;;10.18;60.27;97216.88;10433809;28;20390;-59
2023/03/10 06:13:22;;;;;;;8.68;2.00;;;;;;;10.18;60.29;97208.22;10435098;28;20416;-60
2023/03/10 06:18:25;;;;;;;10.13;2.03;;;;;;;10.25;60.22;97211.84;10434265;28;20536;-60
2023/03/10 06:23:27;;;;;;;9.85;2.05;;;;;;;10.30;60.54;97214.81;10431639;28;20048;-60
2023/03/10 06:28:31;;;;;;;10.63;2.33;;;;;;;10.24;60.63;97218.03;10431509;28;20068;-61
2023/03/10 06:33:34;;;;;;;10.27;2.38;;;;;;;10.25;60.98;97222.31;10431950;28;20049;-61
2023/03/10 06:38:35;;;;;;;8.20;1.80;;;;;;;10.23;60.88;97209.41;10417363;28;20043;-61
2023/03/10 06:43:37;;;;;;;7.25;2.08;;;;;;;10.18;61.40;97205.59;10438881;28;20163;-61
2023/03/10 06:48:41;;;;;;;7.47;1.92;;;;;;;10.04;61.64;97216.63;10433365;28;20532;-61
2023/03/10 06:53:43;;;;;;;7.32;1.80;;;;;;;9.91;62.01;97214.41;10430484;28;20040;-61
2023/03/10 06:58:46;;;;;;;6.68;1.90;;;;;;;10.11;61.70;97210.66;10433594;28;20045;-60
2023/03/10 07:03:47;;;;;;;5.80;1.70;;;;;;;10.20;61.37;97216.72;10430736;28;20041;-60
2023/03/10 07:08:50;;;;;;;10.57;2.00;;;;;;;10.37;60.86;97213.22;10429568;28;20045;-60
2023/03/10 07:13:53;;;;;;;8.98;1.95;;;;;;;10.59;60.33;97211.84;10431107;28;20055;-60
2023/03/10 07:18:55;;;;;;;8.00;1.95;;;;;;;10.74;60.06;97208.47;10430874;28;20052;-60
2023/03/10 07:23:57;;;;;;;8.00;1.95;;;;;;;11.01;59.79;97212.66;10430797;28;20570;-60
2023/03/10 07:29:01;;;;;;;8.80;1.98;;;;;;;11.14;59.36;97216.47;10429189;28;20045;-60
2023/03/10 07:34:03;;;;;;;10.27;2.03;;;;;;;11.18;59.18;97222.19;10430120;28;20060;-60
2023/03/10 07:39:04;;;;;;;8.20;2.17;;;;;;;10.95;59.09;97221.94;10430289;28;20493;-60
2023/03/10 07:44:06;;;;;;;11.35;2.58;;;;;;;10.87;59.30;97206.22;10430015;28;20068;-60
2023/03/10 07:49:08;;;;;;;10.02;2.13;;;;;;;11.12;58.81;97205.34;10429473;28;20131;-60
2023/03/10 07:54:11;;;;;;;9.23;2.13;;;;;;;11.34;58.30;97211.72;10427955;28;20049;-60
2023/03/10 07:59:13;;;;;;;8.75;2.15;;;;;;;11.48;58.14;97202.44;10429912;28;20052;-60
2023/03/10 08:04:15;;;;;;;7.10;2.17;;;;;;;11.40;58.23;97200.63;10410543;28;20045;-60
2023/03/10 08:09:17;;;;;;;10.43;2.28;;;;;;;11.40;58.47;97198.00;10425294;28;20059;-60
2023/03/10 08:14:22;;;;;;;7.53;1.90;;;;;;;11.41;58.03;97201.44;10428266;28;20074;-61
2023/03/10 08:19:26;;;;;;;8.85;2.20;;;;;;;11.55;58.10;97211.25;10426316;28;20095;-60
2023/03/10 08:24:27;;;;;;;8.50;2.00;;;;;;;11.90;57.42;97214.38;10468015;28;20052;-60
2023/03/10 08:29:29;;;;;;;8.40;2.00;;;;;;;12.10;57.17;97217.44;10429575;28;20060;-60
2023/03/10 08:34:32;;;;;;;8.70;2.20;;;;;;;12.02;57.02;97222.69;10426214;28;20049;-60
2023/03/10 08:39:34;;;;;;;8.13;1.70;;;;;;;11.77;57.04;97218.44;10427154;28;20053;-67
2023/03/10 08:44:35;;;;;;;7.88;1.90;;;;;;;11.60;57.74;97229.94;10426383;28;20420;-67
2023/03/10 08:49:37;;;;;;;7.05;2.00;;;;;;;11.39;57.88;97240.03;10428356;28;20148;-68
2023/03/10 08:54:39;;;;;;;6.50;1.70;;;;;;;11.07;58.81;97238.19;10429485;28;20236;-68
2023/03/10 08:59:41;;;;;;;8.93;2.20;;;;;;;10.99;59.21;97241.56;10426077;28;20402;-67
2023/03/10 09:04:42;;;;;;;10.38;2.00;;;;;;;10.86;59.61;97243.00;10437532;28;20531;-68
2023/03/10 09:09:44;;;;;;;8.90;1.90;;;;;;;11.09;59.50;97237.03;10440590;28;20060;-68
2023/03/10 09:14:46;;;;;;;19.10;7.55;;;;;;;11.29;59.38;97233.13;10431485;28;20489;-68
2023/03/10 09:19:47;;;;;;;10.65;2.20;;;;;;;11.42;58.91;97231.88;10413726;28;20079;-67
2023/03/10 09:24:49;;;;;;;11.82;4.63;;;;;;;11.42;57.73;97239.72;10432928;28;20041;-68
2023/03/10 09:29:51;;;;;;;8.50;2.70;;;;;;;11.03;58.32;97250.72;10474382;28;20052;-67
2023/03/10 09:34:52;;;;;;;10.57;2.58;;;;;;;11.29;57.92;97245.44;10461876;28;20064;-67
2023/03/10 09:39:54;;;;;;;9.98;2.47;;;;;;;12.16;56.15;97250.81;10432843;28;20052;-67
2023/03/10 09:45:07;;;;;;;10.32;2.75;;;;;;;12.44;54.91;97249.50;10459911;28;20056;-67
2023/03/10 09:50:27;;;;;;;12.18;5.20;;;;;;;12.68;54.75;97246.00;10432655;28;20441;-68
2023/03/10 09:55:35;;;;;;;13.43;3.07;;;;;;;12.35;55.39;97250.50;10454392;28;20045;-67
2023/03/10 10:00:47;;;;;;;15.48;3.90;;;;;;;12.10;55.47;97252.31;10474098;28;20056;-67
2023/03/10 10:05:52;;;;;;;7.68;2.08;;;;;;;12.15;55.14;97255.25;10453208;28;20059;-67
2023/03/10 10:10:57;;;;;;;6.55;1.88;;;;;;;11.94;54.21;97265.44;10449331;28;20060;-67
2023/03/10 10:16:08;;;;;;;7.50;1.75;;;;;;;11.52;52.81;97267.34;10451273;28;20044;-67
2023/03/10 10:21:41;;;;;;;8.32;1.98;;;;;;;11.69;53.36;97263.78;10472766;28;20130;-68
2023/03/10 10:26:43;;;;;;;7.93;1.80;;;;;;;11.67;54.21;97255.28;10445078;28;20049;-67
2023/03/10 10:32:11;;;;;;;7.47;2.30;;;;;;;11.81;53.07;97252.00;10471968;28;20496;-67
2023/03/10 10:37:31;;;;;;;9.32;3.60;;;;;;;12.14;52.39;97253.63;10435992;28;20053;-68
2023/03/10 10:42:50;;;;;;;5.10;1.77;;;;;;;12.28;52.83;97254.78;10430550;28;20522;-67
2023/03/10 10:47:54;;;;;;;9.95;3.40;;;;;;;12.35;52.15;97250.50;10430905;28;20049;-68
2023/03/10 10:53:23;;;;;;;8.80;2.83;;;;;;;12.53;51.78;97258.97;10445747;28;20076;-67
2023/03/10 10:58:36;;;;;;;9.38;3.47;;;;;;;12.68;51.99;97257.28;10446975;28;20053;-67
2023/03/10 11:03:40;;;;;;;6.88;2.47;;;;;;;12.94;51.85;97254.41;10470357;28;20588;-67
2023/03/10 11:08:49;;;;;;;7.10;2.25;;;;;;;13.08;51.09;97258.09;10429249;28;20040;-67
2023/03/10 11:14:18;;;;;;;7.05;2.60;;;;;;;13.12;50.72;97254.13;10453165;28;20062;-67
2023/03/10 11:20:04;;;;;;;7.20;2.00;;;;;;;13.15;48.87;97248.56;10429787;28;20198;-67
2023/03/10 11:25:16;;;;;;;3.58;1.40;;;;;;;13.18;48.76;97249.03;10462580;28;20048;-67
2023/03/10 11:30:29;;;;;;;6.28;2.50;;;;;;;13.23;48.78;97238.00;10438713;28;20564;-67
2023/03/10 11:35:44;;;;;;;5.32;2.38;;;;;;;13.04;49.82;97246.31;10425279;28;20045;-67
2023/03/10 11:40:52;;;;;;;5.85;2.35;;;;;;;13.12;49.20;97238.38;10426817;28;20036;-68
2023/03/10 11:45:59;;;;;;;4.45;1.50;;;;;;;12.66;49.88;97237.47;10447090;28;20059;-68
2023/03/10 11:51:03;;;;;;;3.42;1.30;;;;;;;12.74;49.93;97225.13;10428592;28;20059;-67
2023/03/10 11:56:08;;;;;;;3.47;1.45;;;;;;;13.08;49.88;97234.47;10454625;28;20304;-68
2023/03/10 12:01:18;;;;;;;1.73;0.98;;;;;;;12.78;50.13;97225.63;10435170;28;20413;-67
2023/03/10 12:06:32;;;;;;;3.53;1.37;;;;;;;12.81;50.29;97226.09;10412292;28;20060;-67
2023/03/10 12:11:34;;;;;;;1.63;0.85;;;;;;;12.88;50.68;97216.53;10423449;28;20052;-67
2023/03/10 12:16:37;;;;;;;2.33;1.10;;;;;;;12.65;51.91;97231.41;10464238;28;20048;-67
2023/03/10 12:21:39;;;;;;;2.70;0.90;;;;;;;12.13;54.09;97219.72;10442655;28;20064;-67
2023/03/10 12:26:41;;;;;;;3.42;1.23;;;;;;;12.02;55.53;97212.22;10464171;28;20044;-67
2023/03/10 12:31:45;;;;;;;1.52;1.00;;;;;;;11.84;56.38;97212.41;10425193;28;20056;-67
2023/03/10 12:36:51;;;;;;;4.00;1.17;;;;;;;11.67;57.00;97202.09;10464367;28;20068;-67
2023/03/10 12:42:03;;;;;;;4.18;1.20;;;;;;;11.32;58.68;97202.44;10434938;28;20417;-67
2023/03/10 12:47:07;;;;;;;2.63;1.10;;;;;;;11.06;59.23;97208.59;10463905;28;20048;-67
2023/03/10 12:52:34;;;;;;;3.55;0.90;;;;;;;10.97;60.05;97204.28;10433035;28;20399;-67
2023/03/10 12:57:51;;;;;;;3.15;1.50;;;;;;;11.17;60.85;97197.81;10412867;28;20523;-66
2023/03/10 13:03:00;;;;;;;3.35;1.77;;;;;;;11.27;60.31;97201.09;10431816;28;20616;-67
2023/03/10 13:08:16;;;;;;;2.92;1.48;;;;;;;10.85;61.10;97204.72;10455397;28;20041;-68
2023/03/10 13:13:18;;;;;;;3.13;1.00;;;;;;;10.50;61.84;97187.50;10428141;28;20057;-67
2023/03/10 13:18:21;;;;;;;1.23;0.77;;;;;;;10.66;62.03;97174.47;10445028;28;20053;-67
2023/03/10 13:23:27;;;;;;;0.95;0.60;;;;;;;10.80;61.98;97180.88;10430869;28;20143;-67
2023/03/10 13:28:33;;;;;;;1.13;0.80;;;;;;;10.76;61.83;97172.53;10429085;28;20045;-67
2023/03/10 13:33:35;;;;;;;2.25;1.30;;;;;;;10.65;62.06;97170.22;10450015;28;20076;-67
2023/03/10 13:38:55;;;;;;;2.40;1.45;;;;;;;10.93;61.83;97171.59;10453640;28;20048;-67
2023/03/10 13:43:57;;;;;;;3.80;2.30;;;;;;;11.04;62.03;97171.31;10437326;28;20056;-67
2023/03/10 13:49:05;;;;;;;3.65;2.10;;;;;;;11.10;62.03;97164.63;10430790;28;20049;-67
2023/03/10 13:54:20;;;;;;;4.53;2.10;;;;;;;10.93;62.21;97158.50;10415288;28;20076;-67
2023/03/10 13:59:26;;;;;;;4.00;2.63;;;;;;;10.82;62.50;97151.00;10437830;28;20204;-67
2023/03/10 14:04:48;;;;;;;3.10;1.92;;;;;;;10.63;63.05;97173.94;10435331;28;20154;-67
2023/03/10 14:10:03;;;;;;;3.10;1.92;;;;;;;10.62;63.56;97175.78;10438582;28;20417;-67
2023/03/10 14:15:19;;;;;;;3.72;2.00;;;;;;;10.49;63.49;97173.59;10427892;28;20076;-67
2023/03/10 14:20:29;;;;;;;4.57;2.35;;;;;;;10.33;64.10;97168.31;10428042;28;20079;-67
2023/03/10 14:25:32;;;;;;;5.13;1.95;;;;;;;10.20;64.34;97177.53;10438392;28;20045;-67
2023/03/10 14:30:33;;;;;;;2.42;1.30;;;;;;;10.20;63.96;97201.88;10428395;28;20095;-68
2023/03/10 14:35:35;;;;;;;1.30;1.10;;;;;;;10.23;63.25;97203.34;10443552;28;20136;-67
2023/03/10 14:40:49;;;;;;;2.08;1.27;;;;;;;9.80;63.39;97206.03;10427390;28;20064;-67
2023/03/10 14:45:53;;;;;;;1.58;0.95;;;;;;;9.79;63.24;97192.16;10436032;28;20083;-67
2023/03/10 14:50:55;;;;;;;2.08;1.00;;;;;;;9.71;62.63;97212.16;10426691;28;20307;-67
2023/03/10 14:56:00;;;;;;;0.82;0.60;;;;;;;9.83;62.02;97226.63;10435220;28;20044;-67
2023/03/10 15:01:04;;;;;;;3.17;1.63;;;;;;;9.75;63.39;97258.66;10436482;28;20140;-67
2023/03/10 15:06:10;;;;;;;2.90;1.30;;;;;;;9.26;63.22;97265.22;10453322;28;20052;-68
2023/03/10 15:11:12;;;;;;;2.38;1.52;;;;;;;9.10;62.95;97274.66;10428110;28;20655;-67
2023/03/10 15:16:17;;;;;;;1.80;1.30;;;;;;;9.34;62.18;97280.94;10425628;28;20049;-66
2023/03/10 15:21:19;;;;;;;1.85;1.10;;;;;;;9.47;62.09;97273.56;10432086;28;20057;-67
2023/03/10 15:26:21;;;;;;;0.55;0.40;;;;;;;8.76;61.35;97292.66;10438088;28;20059;-67
2023/03/10 15:31:22;;;;;;;1.98;0.82;;;;;;;8.83;61.06;97314.59;10424063;28;20060;-67
2023/03/10 15:36:24;;;;;;;1.90;0.73;;;;;;;8.63;61.53;97324.25;10408003;28;20056;-67
2023/03/10 15:41:26;;;;;;;1.88;1.02;;;;;;;8.48;61.07;97317.88;10440560;28;20056;-67
2023/03/10 15:46:28;;;;;;;1.55;0.75;;;;;;;8.79;60.46;97326.28;10427466;28;20056;-66
2023/03/10 15:51:29;;;;;;;1.63;0.75;;;;;;;8.77;59.71;97320.38;10449299;28;20516;-67
2023/03/10 15:56:32;;;;;;;1.38;0.88;;;;;;;8.77;59.29;97320.38;10437835;28;20721;-67
2023/03/10 16:01:34;;;;;;;0.68;0.68;;;;;;;8.62;59.03;97306.19;10438518;28;20041;-67
2023/03/10 16:06:36;;;;;;;2.20;0.98;;;;;;;8.40;59.15;97286.53;10425321;28;20415;-67
2023/03/10 16:11:38;;;;;;;0.85;0.60;;;;;;;8.40;58.90;97298.72;10434730;28;20075;-66
2023/03/10 16:16:39;;;;;;;0.85;0.70;;;;;;;8.21;58.46;97289.16;10425980;28;20483;-67
2023/03/10 16:21:41;;;;;;;0.60;0.60;;;;;;;8.04;58.52;97321.91;10421266;28;20057;-67
2023/03/10 16:26:43;;;;;;;0.90;0.70;;;;;;;8.21;57.63;97350.81;10430678;28;20064;-67
2023/03/10 16:31:45;;;;;;;2.30;0.68;;;;;;;8.18;56.95;97345.91;10449331;28;20110;-67
2023/03/10 16:36:49;;;;;;;1.92;0.88;;;;;;;8.25;57.24;97389.47;10454193;28;20092;-67
2023/03/10 16:41:52;;;;;;;1.17;0.65;;;;;;;8.04;57.03;97384.38;10447132;28;20135;-67
2023/03/10 16:46:53;;;;;;;1.83;0.90;;;;;;;8.02;57.18;97399.31;10448758;28;20048;-67
2023/03/10 16:51:55;;;;;;;2.08;0.82;;;;;;;7.56;56.50;97409.53;10450424;28;20044;-67
2023/03/10 16:57:00;;;;;;;0.63;0.63;;;;;;;7.60;55.93;97405.72;10473447;28;20397;-67
2023/03/10 17:02:03;;;;;;;2.00;0.93;;;;;;;7.40;55.29;97434.41;10446932;28;20071;-68
2023/03/10 17:07:05;;;;;;;0.70;0.70;;;;;;;7.41;55.66;97423.88;10462983;28;20132;-69
2023/03/10 17:12:07;;;;;;;0.73;0.68;;;;;;;7.45;56.01;97455.66;10444676;28;20877;-68
2023/03/10 17:17:09;;;;;;;0.70;0.70;;;;;;;7.44;56.15;97472.19;10461472;28;20045;-67
2023/03/10 17:22:10;;;;;;;1.98;1.20;;;;;;;7.41;56.39;97482.84;10434945;28;20053;-67
2023/03/10 17:27:12;;;;;;;1.33;0.85;;;;;;;7.08;57.69;97496.94;10447155;28;20634;-67
2023/03/10 17:32:13;;;;;;;0.90;0.80;;;;;;;6.86;58.77;97508.28;10446096;28;20064;-67
2023/03/10 17:37:15;;;;;;;3.58;1.10;;;;;;;6.47;60.56;97553.09;10433723;28;20051;-67
2023/03/10 17:42:17;;;;;;;1.83;1.00;;;;;;;6.42;61.07;97562.22;10447138;28;20060;-67
2023/03/10 17:47:19;;;;;;;1.88;0.73;;;;;;;6.16;61.63;97619.59;10438509;28;20059;-67
2023/03/10 17:52:20;;;;;;;0.77;0.52;;;;;;;5.67;61.05;97626.94;10445057;28;20700;-67
2023/03/10 17:57:22;;;;;;;0.93;0.50;;;;;;;5.32;60.45;97675.41;10449008;28;20060;-68
2023/03/10 18:02:24;;;;;;;0.70;0.50;;;;;;;4.88;59.76;97714.09;10430581;28;20076;-67
2023/03/10 18:07:27;;;;;;;0.60;0.60;;;;;;;4.30;59.56;97727.72;10425745;28;20057;-67
2023/03/10 18:12:28;;;;;;;2.67;0.80;;;;;;;3.88;59.07;97775.44;10433436;28;20128;-68
2023/03/10 18:17:30;;;;;;;2.92;1.00;;;;;;;3.79;58.78;97776.03;10432885;28;20144;-62
2023/03/10 18:22:33;;;;;;;2.47;1.13;;;;;;;3.56;58.38;97805.13;10435402;28;20056;-63
2023/03/10 18:27:35;;;;;;;1.50;1.10;;;;;;;3.22;59.44;97809.06;10413791;28;20041;-62
2023/03/10 18:32:37;;;;;;;4.05;1.40;;;;;;;3.09;59.12;97834.00;10420990;28;20049;-64
2023/03/10 18:37:40;;;;;;;2.40;1.60;;;;;;;3.15;59.30;97893.03;10441745;28;20114;-63
2023/03/10 18:42:42;;;;;;;3.60;1.50;;;;;;;3.02;58.57;97917.94;10428921;28;20059;-62
2023/03/10 18:47:44;;;;;;;5.43;2.20;;;;;;;2.92;59.11;97947.84;10440245;28;20540;-62
2023/03/10 18:52:47;;;;;;;2.97;2.15;;;;;;;2.89;59.42;97964.34;10433229;28;20438;-63
2023/03/10 18:57:49;;;;;;;3.10;2.10;;;;;;;2.88;59.26;97961.84;10425050;28;20401;-63
2023/03/10 19:02:53;;;;;;;3.17;2.25;;;;;;;2.95;59.59;98015.59;10427784;28;20095;-64
2023/03/10 19:07:55;;;;;;;4.03;2.78;;;;;;;2.84;59.29;98036.06;10458788;28;20413;-65
2023/03/10 19:12:57;;;;;;;4.20;3.25;;;;;;;3.01;59.84;98035.91;10438838;28;20500;-64
2023/03/10 19:17:59;;;;;;;5.05;3.90;;;;;;;2.84;59.58;98064.47;10443393;28;20088;-64
2023/03/10 19:23:01;;;;;;;5.13;4.13;;;;;;;2.70;59.55;98090.22;10432287;28;20461;-65
2023/03/10 19:28:03;;;;;;;4.95;4.03;;;;;;;2.61;60.19;98087.34;10445108;28;20040;-65
2023/03/10 19:33:04;;;;;;;6.03;4.57;;;;;;;2.55;59.82;98073.03;10435186;28;20056;-65
2023/03/10 19:38:06;;;;;;;5.82;4.03;;;;;;;2.32;59.63;98130.25;10428346;28;20413;-64
2023/03/10 19:43:08;;;;;;;6.05;4.22;;;;;;;2.43;59.33;98173.53;10440087;28;20044;-64
2023/03/10 19:48:09;;;;;;;5.18;3.78;;;;;;;2.43;59.52;98174.34;10430451;28;20197;-62
2023/03/10 19:53:11;;;;;;;5.80;3.70;;;;;;;2.35;59.41;98197.16;10433017;28;20048;-63
2023/03/10 19:58:12;;;;;;;4.20;3.10;;;;;;;2.24;57.82;98235.56;10433303;28;20049;-65
2023/03/10 20:03:15;;;;;;;5.00;3.35;;;;;;;2.23;59.47;98272.63;10441810;28;20057;-66
2023/03/10 20:08:19;;;;;;;6.10;3.83;;;;;;;2.44;58.89;98288.72;10442016;28;20686;-63
2023/03/10 20:13:20;;;;;;;5.38;3.88;;;;;;;2.38;59.62;98327.75;10411344;28;20056;-65
2023/03/10 20:18:22;;;;;;;5.13;3.80;;;;;;;2.19;59.03;98317.53;10432258;28;20417;-64
2023/03/10 20:23:27;;;;;;;5.32;3.90;;;;;;;2.33;59.60;98335.72;10427628;28;20045;-65
2023/03/10 20:28:28;;;;;;;5.50;3.70;;;;;;;2.36;59.87;98348.44;10416128;28;20060;-65
2023/03/10 20:33:30;;;;;;;4.55;3.10;;;;;;;2.40;59.86;98362.84;10427023;28;20060;-65
2023/03/10 20:38:33;;;;;;;4.70;3.13;;;;;;;2.28;61.71;98375.53;10431352;28;21116;-65
2023/03/10 20:43:35;;;;;;;6.10;3.00;;;;;;;2.27;60.38;98397.94;10430564;28;20040;-65
2023/03/10 20:48:38;;;;;;;4.45;2.80;;;;;;;2.33;60.12;98405.34;10428693;28;20059;-65
2023/03/10 20:53:40;;;;;;;4.57;3.20;;;;;;;2.22;59.69;98410.22;10426491;28;20052;-66
2023/03/10 20:58:42;;;;;;;5.10;2.60;;;;;;;2.36;59.52;98432.75;10425022;28;20304;-65
2023/03/10 21:03:43;;;;;;;3.58;2.38;;;;;;;2.22;59.85;98436.84;10427533;28;20044;-65
2023/03/10 21:08:46;;;;;;;3.70;2.50;;;;;;;2.20;60.33;98458.44;10419930;28;20516;-66
2023/03/10 21:13:49;;;;;;;3.47;2.17;;;;;;;2.25;60.25;98471.13;10427247;28;20055;-65
2023/03/10 21:18:51;;;;;;;3.33;1.90;;;;;;;2.23;59.81;98481.53;10433068;28;20317;-65
2023/03/10 21:23:53;;;;;;;4.18;2.20;;;;;;;2.20;60.18;98491.97;10434002;28;20052;-65
2023/03/10 21:28:56;;;;;;;2.88;1.90;;;;;;;1.91;59.80;98506.28;10433587;28;20048;-65
2023/03/10 21:33:59;;;;;;;3.95;2.13;;;;;;;1.98;59.90;98517.97;10419071;28;20053;-65
2023/03/10 21:39:01;;;;;;;3.78;1.98;;;;;;;2.15;59.88;98522.34;10430982;28;20624;-65
2023/03/10 21:44:04;;;;;;;2.90;1.92;;;;;;;2.14;59.58;98530.97;10428953;28;20041;-66
2023/03/10 21:49:06;;;;;;;3.92;2.08;;;;;;;2.27;59.52;98547.53;10431836;28;20048;-66
2023/03/10 21:54:08;;;;;;;3.53;2.20;;;;;;;2.25;59.58;98559.66;10415023;28;20048;-64
2023/03/10 21:59:10;;;;;;;2.50;1.90;;;;;;;2.11;59.54;98582.69;10429483;28;20126;-65
2023/03/10 22:04:12;;;;;;;2.85;2.13;;;;;;;2.14;59.49;98579.97;10428284;28;20452;-64
2023/03/10 22:09:14;;;;;;;3.03;2.05;;;;;;;2.20;59.90;98608.03;10431344;28;20142;-65
2023/03/10 22:14:16;;;;;;;5.18;3.15;;;;;;;1.85;61.62;98617.41;10432443;28;20586;-65
2023/03/10 22:19:18;;;;;;;4.00;3.10;;;;;;;1.90;62.11;98640.41;10429413;28;20068;-66
2023/03/10 22:24:20;;;;;;;4.53;3.13;;;;;;;1.57;63.31;98645.31;10442619;28;20303;-66
2023/03/10 22:29:22;;;;;;;4.40;2.80;;;;;;;1.47;63.61;98656.06;10427987;28;20501;-65
2023/03/10 22:34:23;;;;;;;3.72;2.60;;;;;;;1.44;63.73;98674.25;10425681;28;20053;-65
2023/03/10 22:39:25;;;;;;;4.05;2.33;;;;;;;1.35;63.93;98678.91;10427129;28;20485;-65
2023/03/10 22:44:32;;;;;;;4.43;2.63;;;;;;;1.59;62.98;98702.78;10424285;28;20056;-65
2023/03/10 22:49:33;;;;;;;4.78;2.50;;;;;;;1.49;62.79;98708.38;10428316;28;20769;-66
2023/03/10 22:54:35;;;;;;;5.13;3.03;;;;;;;1.57;62.84;98724.34;10425177;28;21320;-65
2023/03/10 22:59:37;;;;;;;5.38;2.35;;;;;;;1.48;63.06;98729.91;10428190;28;20052;-65
2023/03/10 23:04:38;;;;;;;4.03;2.58;;;;;;;1.42;63.17;98730.97;10409353;28;20048;-64
2023/03/10 23:09:40;;;;;;;6.25;2.40;;;;;;;1.37;63.10;98738.06;10427168;28;20045;-65
2023/03/10 23:14:42;;;;;;;4.35;2.55;;;;;;;1.38;62.75;98750.88;10445288;28;20056;-64
2023/03/10 23:19:43;;;;;;;4.32;2.20;;;;;;;1.28;62.53;98748.75;10429233;28;20060;-65
2023/03/10 23:24:45;;;;;;;4.95;2.22;;;;;;;1.33;62.21;98754.56;10428046;28;20049;-65
2023/03/10 23:29:47;;;;;;;4.78;2.30;;;;;;;1.21;62.57;98766.22;10408021;28;20048;-65
2023/03/10 23:34:48;;;;;;;5.07;2.38;;;;;;;1.25;61.97;98770.34;10442721;28;20052;-65
2023/03/10 23:39:50;;;;;;;4.78;1.80;;;;;;;1.29;61.98;98781.34;10428005;28;20765;-65
2023/03/10 23:44:52;;;;;;;4.18;2.00;;;;;;;1.38;61.67;98778.38;10425447;28;20532;-65